Time;durP1;ratioP1;P1;durP2;ratioP2;P2;SDS_P1;SDS_P2;PMS_P1;PMS_P2;Temp;Humidity;BMP_temperature;BMP_pressure;BME280_temperature;BME280_humidity;BME280_pressure;Samples;Min_cycle;Max_cycle;Signal;HPM_P1;HPM_P2
2021/03/21 00:01:20;;;;;;;;;;;0.60;99.90;;;;;;8349364;23;20020;-68
2021/03/21 00:05:20;;;;;;;;;;;0.50;99.90;;;;;;8326392;28;19983;-68
2021/03/21 00:09:21;;;;;;;;;;;0.60;99.90;;;;;;8329001;28;19995;-68
2021/03/21 00:13:21;;;;;;;;;;;0.50;99.90;;;;;;8328569;28;19986;-69
2021/03/21 00:17:22;;;;;;;;;;;0.40;99.90;;;;;;8328525;28;19905;-69
2021/03/21 00:21:22;;;;;;;;;;;0.40;99.90;;;;;;8335095;28;20354;-68
2021/03/21 00:25:24;;;;;;;;;;;0.40;99.90;;;;;;8309817;28;19913;-68
2021/03/21 00:29:24;;;;;;;;;;;0.30;99.90;;;;;;8328020;28;19909;-69
2021/03/21 00:33:27;;;;;;;;;;;0.30;99.90;;;;;;8327445;28;20442;-69
2021/03/21 00:37:27;;;;;;;;;;;0.30;99.90;;;;;;8327587;28;19911;-68
2021/03/21 00:41:28;;;;;;;;;;;0.30;99.90;;;;;;8327769;28;19905;-68
2021/03/21 00:45:29;;;;;;;;;;;0.20;99.90;;;;;;8327774;28;19935;-68
2021/03/21 00:49:29;;;;;;;;;;;0.30;99.90;;;;;;8327654;28;19916;-68
2021/03/21 00:53:30;;;;;;;;;;;0.30;99.90;;;;;;8322160;28;20607;-68
2021/03/21 00:57:30;;;;;;;;;;;0.40;99.90;;;;;;8325692;28;20492;-68
2021/03/21 01:01:32;;;;;;;;;;;0.40;99.90;;;;;;8326689;28;20038;-69
2021/03/21 01:05:35;;;;;;;;;;;0.30;99.90;;;;;;8309505;28;19944;-68
2021/03/21 01:09:35;;;;;;;;;;;0.30;99.90;;;;;;8309520;28;19905;-68
2021/03/21 01:13:36;;;;;;;;;;;0.40;99.90;;;;;;8326300;28;20287;-68
2021/03/21 01:17:36;;;;;;;;;;;0.40;99.90;;;;;;8326953;28;20363;-68
2021/03/21 01:21:43;;;;;;;;;;;0.40;99.90;;;;;;8334112;28;19927;-68
2021/03/21 01:25:44;;;;;;;;;;;0.50;99.90;;;;;;8327883;28;20530;-68
2021/03/21 01:29:44;;;;;;;;;;;0.50;99.90;;;;;;8326152;28;19996;-68
2021/03/21 01:33:45;;;;;;;;;;;0.50;99.90;;;;;;8326162;28;19999;-68
2021/03/21 01:37:46;;;;;;;;;;;0.40;99.90;;;;;;8326258;28;19905;-68
2021/03/21 01:41:52;;;;;;;;;;;0.50;99.90;;;;;;8326490;28;19905;-68
2021/03/21 01:45:53;;;;;;;;;;;0.30;99.90;;;;;;8331720;28;20401;-68
2021/03/21 01:49:53;;;;;;;;;;;0.50;99.90;;;;;;8333083;28;19905;-68
2021/03/21 01:53:58;;;;;;;;;;;0.40;99.90;;;;;;8316096;28;20673;-68
2021/03/21 01:57:59;;;;;;;;;;;0.30;99.90;;;;;;8313949;28;19944;-68
2021/03/21 02:02:01;;;;;;;;;;;0.30;99.90;;;;;;8332592;28;20363;-68
2021/03/21 02:06:10;;;;;;;;;;;0.20;99.90;;;;;;8314662;28;19948;-68
2021/03/21 02:10:22;;;;;;;;;;;0.20;99.90;;;;;;8314895;28;20372;-68
2021/03/21 02:14:35;;;;;;;;;;;0.30;99.90;;;;;;8320466;28;19932;-68
2021/03/21 02:18:38;;;;;;;;;;;0.20;99.90;;;;;;8331894;28;19998;-68
2021/03/21 02:22:45;;;;;;;;;;;0.20;99.90;;;;;;8330201;28;19975;-68
2021/03/21 02:26:45;;;;;;;;;;;0.20;99.90;;;;;;8331840;28;20310;-68
2021/03/21 02:30:48;;;;;;;;;;;0.20;99.90;;;;;;8313120;28;19909;-68
2021/03/21 02:34:58;;;;;;;;;;;0.20;99.90;;;;;;8302506;28;19929;-68
2021/03/21 02:39:06;;;;;;;;;;;0.20;99.90;;;;;;8329494;28;20061;-68
2021/03/21 02:43:09;;;;;;;;;;;0.20;99.90;;;;;;8331250;28;19905;-68
2021/03/21 02:47:13;;;;;;;;;;;0.20;99.90;;;;;;8313887;28;19963;-68
2021/03/21 02:51:22;;;;;;;;;;;0.30;99.90;;;;;;8336572;28;19909;-68
2021/03/21 02:55:26;;;;;;;;;;;0.30;99.90;;;;;;8330864;28;19951;-68
2021/03/21 02:59:30;;;;;;;;;;;0.20;99.90;;;;;;8330879;28;19912;-68
2021/03/21 03:03:31;;;;;;;;;;;0.20;99.90;;;;;;8329256;28;19917;-68
2021/03/21 03:07:51;;;;;;;;;;;0.30;99.90;;;;;;8312613;28;19905;-68
2021/03/21 03:11:54;;;;;;;;;;;0.20;99.90;;;;;;8329818;28;19941;-68
2021/03/21 03:15:59;;;;;;;;;;;0.20;99.90;;;;;;8329711;28;20394;-68
2021/03/21 03:20:05;;;;;;;;;;;0.30;99.90;;;;;;8312460;28;19916;-68
2021/03/21 03:24:08;;;;;;;;;;;0.20;99.90;;;;;;8329587;28;19905;-68
2021/03/21 03:28:09;;;;;;;;;;;0.30;99.90;;;;;;8329936;28;20272;-68
2021/03/21 03:32:12;;;;;;;;;;;0.30;99.90;;;;;;8311981;28;20326;-68
2021/03/21 03:36:14;;;;;;;;;;;0.20;99.90;;;;;;8317474;28;20371;-68
2021/03/21 03:40:15;;;;;;;;;;;0.20;99.90;;;;;;8329658;28;19999;-68
2021/03/21 03:44:22;;;;;;;;;;;0.10;99.90;;;;;;8328889;28;19992;-68
2021/03/21 03:48:31;;;;;;;;;;;0.10;99.90;;;;;;8326990;28;19909;-68
2021/03/21 03:52:50;;;;;;;;;;;0.10;99.90;;;;;;8328328;28;19912;-67
2021/03/21 03:57:23;;;;;;;;;;;0.20;99.90;;;;;;8328113;28;19948;-68
2021/03/21 04:01:33;;;;;;;;;;;0.30;99.90;;;;;;8294262;28;19944;-68
2021/03/21 04:05:42;;;;;;;;;;;0.20;99.90;;;;;;8315840;28;19912;-68
2021/03/21 04:09:47;;;;;;;;;;;0.20;99.90;;;;;;8327027;28;19908;-68
2021/03/21 04:14:01;;;;;;;;;;;0.30;99.90;;;;;;8327145;28;19917;-68
2021/03/21 04:18:06;;;;;;;;;;;0.30;99.90;;;;;;8328275;28;19956;-68
2021/03/21 04:22:12;;;;;;;;;;;0.20;99.90;;;;;;8318876;28;19974;-68
2021/03/21 04:26:16;;;;;;;;;;;0.20;99.90;;;;;;8327749;28;19928;-68
2021/03/21 04:30:18;;;;;;;;;;;0.40;99.90;;;;;;8327629;28;19933;-68
2021/03/21 04:34:20;;;;;;;;;;;0.30;99.90;;;;;;8325620;28;19921;-68
2021/03/21 04:38:32;;;;;;;;;;;0.20;99.90;;;;;;8309953;28;19911;-68
2021/03/21 04:42:33;;;;;;;;;;;0.30;99.90;;;;;;8323927;28;19906;-68
2021/03/21 04:46:37;;;;;;;;;;;0.30;99.90;;;;;;8309685;28;20381;-68
2021/03/21 04:50:38;;;;;;;;;;;0.20;99.90;;;;;;8326715;28;19909;-68
2021/03/21 04:54:38;;;;;;;;;;;0.10;99.90;;;;;;8326851;28;19905;-68
2021/03/21 04:58:41;;;;;;;;;;;0.10;99.90;;;;;;8326829;28;19909;-68
2021/03/21 05:02:43;;;;;;;;;;;0.20;99.90;;;;;;8317875;28;19916;-68
2021/03/21 05:06:44;;;;;;;;;;;0.10;99.90;;;;;;8314437;28;19936;-68
2021/03/21 05:10:50;;;;;;;;;;;0.30;99.90;;;;;;8324126;28;20269;-68
2021/03/21 05:14:54;;;;;;;;;;;0.20;99.90;;;;;;8324864;28;19921;-68
2021/03/21 05:19:03;;;;;;;;;;;0.30;99.90;;;;;;8325408;28;19951;-68
2021/03/21 05:23:04;;;;;;;;;;;0.60;99.90;;;;;;8326523;28;19905;-68
2021/03/21 05:27:11;;;;;;;;;;;0.60;99.90;;;;;;8326199;28;20100;-67
2021/03/21 05:31:11;;;;;;;;;;;0.50;99.90;;;;;;8326500;28;19959;-68
2021/03/21 05:35:17;;;;;;;;;;;0.40;99.90;;;;;;8336820;28;19905;-68
2021/03/21 05:39:24;;;;;;;;;;;0.40;99.90;;;;;;8326235;28;19905;-68
2021/03/21 05:43:37;;;;;;;;;;;0.30;99.90;;;;;;8325170;28;19905;-68
2021/03/21 05:47:48;;;;;;;;;;;0.40;99.90;;;;;;8323444;28;19924;-68
2021/03/21 05:51:57;;;;;;;;;;;0.50;99.90;;;;;;8306849;28;19913;-68
2021/03/21 05:56:01;;;;;;;;;;;0.40;99.90;;;;;;8326298;28;19905;-68
2021/03/21 06:00:17;;;;;;;;;;;0.50;99.90;;;;;;8303777;28;19916;-68
2021/03/21 06:04:18;;;;;;;;;;;0.60;99.90;;;;;;8321981;28;19913;-68
2021/03/21 06:08:28;;;;;;;;;;;0.60;99.90;;;;;;8323894;28;19978;-68
2021/03/21 06:12:41;;;;;;;;;;;0.70;99.90;;;;;;8316405;28;20008;-68
2021/03/21 06:16:51;;;;;;;;;;;0.70;99.90;;;;;;8297856;28;20360;-68
2021/03/21 06:21:10;;;;;;;;;;;0.80;99.90;;;;;;8316031;28;19959;-68
2021/03/21 06:25:10;;;;;;;;;;;0.60;99.90;;;;;;8321495;28;19909;-68
2021/03/21 06:29:17;;;;;;;;;;;0.80;99.90;;;;;;8313876;28;19909;-68
2021/03/21 06:33:23;;;;;;;;;;;0.90;99.90;;;;;;8320111;28;19913;-68
2021/03/21 06:37:42;;;;;;;;;;;0.70;99.90;;;;;;8312215;28;19916;-67
2021/03/21 06:41:46;;;;;;;;;;;0.90;99.90;;;;;;8318511;28;20272;-67
2021/03/21 06:46:03;;;;;;;;;;;1.10;99.90;;;;;;8320890;28;19909;-68
2021/03/21 06:50:07;;;;;;;;;;;1.00;99.90;;;;;;8323243;28;19905;-68
2021/03/21 06:54:22;;;;;;;;;;;1.00;99.90;;;;;;8323582;28;20529;-68
2021/03/21 06:58:35;;;;;;;;;;;1.20;99.90;;;;;;8323573;28;19936;-68
2021/03/21 07:02:55;;;;;;;;;;;1.40;99.90;;;;;;8309911;28;19948;-68
2021/03/21 07:07:14;;;;;;;;;;;1.20;99.90;;;;;;8299019;28;19905;-68
2021/03/21 07:11:26;;;;;;;;;;;1.30;99.90;;;;;;8284617;28;19913;-67
2021/03/21 07:15:45;;;;;;;;;;;1.20;99.90;;;;;;8302229;28;19912;-67
2021/03/21 07:19:52;;;;;;;;;;;1.30;99.90;;;;;;8311956;28;19963;-68
2021/03/21 07:24:13;;;;;;;;;;;1.30;99.90;;;;;;8329845;28;20369;-68
2021/03/21 07:28:25;;;;;;;;;;;1.60;99.90;;;;;;8329965;28;19909;-68
2021/03/21 07:32:32;;;;;;;;;;;1.70;99.90;;;;;;8329703;28;19943;-67
2021/03/21 07:36:48;;;;;;;;;;;1.60;99.90;;;;;;8336434;28;20434;-67
2021/03/21 07:40:50;;;;;;;;;;;1.50;99.90;;;;;;8310702;28;20327;-67
2021/03/21 07:45:02;;;;;;;;;;;1.60;99.90;;;;;;8328926;28;19915;-67
2021/03/21 07:49:22;;;;;;;;;;;1.70;99.90;;;;;;8312014;28;20042;-67
2021/03/21 07:53:26;;;;;;;;;;;1.70;99.90;;;;;;8309688;28;20346;-67
2021/03/21 07:57:30;;;;;;;;;;;1.70;99.90;;;;;;8328232;28;19912;-67
2021/03/21 08:01:30;;;;;;;;;;;1.70;99.90;;;;;;8313331;28;19929;-68
2021/03/21 08:05:31;;;;;;;;;;;1.80;99.90;;;;;;8331941;28;20379;-67
2021/03/21 08:09:38;;;;;;;;;;;2.10;99.90;;;;;;8328867;28;19905;-68
2021/03/21 08:13:40;;;;;;;;;;;2.10;99.90;;;;;;8324689;28;19909;-67
2021/03/21 08:17:46;;;;;;;;;;;2.20;99.90;;;;;;8324478;28;20306;-68
2021/03/21 08:21:47;;;;;;;;;;;2.30;99.90;;;;;;8309996;28;20485;-68
2021/03/21 08:25:48;;;;;;;;;;;2.30;99.90;;;;;;8328447;28;19905;-68
2021/03/21 08:30:04;;;;;;;;;;;2.00;99.90;;;;;;8328081;28;19936;-68
2021/03/21 08:34:17;;;;;;;;;;;1.90;99.90;;;;;;8325664;28;20291;-68
2021/03/21 08:38:18;;;;;;;;;;;1.90;99.90;;;;;;8328848;28;19908;-68
2021/03/21 08:42:39;;;;;;;;;;;1.90;99.90;;;;;;8327247;28;19916;-68
2021/03/21 08:46:47;;;;;;;7.40;4.63;;;2.20;99.90;;;;;;8316189;28;20435;-68
2021/03/21 08:50:50;;;;;;;9.40;4.22;;;2.80;99.90;;;;;;8317683;28;20033;-68
2021/03/21 08:54:51;;;;;;;6.50;3.95;;;3.40;99.90;;;;;;8301673;28;20036;-68
2021/03/21 08:59:27;;;;;;;6.10;3.72;;;3.50;99.90;;;;;;8321388;28;20030;-68
2021/03/21 09:03:31;;;;;;;6.38;3.88;;;3.30;99.90;;;;;;8342534;28;20036;-68
2021/03/21 09:07:37;;;;;;;7.93;3.97;;;2.60;99.90;;;;;;8326226;28;20030;-68
2021/03/21 09:11:37;;;;;;;8.52;4.25;;;2.50;99.90;;;;;;8308160;28;20958;-68
2021/03/21 09:15:42;;;;;;;6.85;4.15;;;2.40;99.90;;;;;;8325572;28;20033;-67
2021/03/21 09:19:46;;;;;;;6.03;3.80;;;2.40;99.90;;;;;;8310439;28;20025;-68
2021/03/21 09:24:09;;;;;;;7.90;3.90;;;2.20;99.90;;;;;;8306791;28;20488;-67
2021/03/21 09:28:09;;;;;;;10.05;3.67;;;2.20;99.90;;;;;;8325173;28;20060;-67
2021/03/21 09:32:30;;;;;;;7.13;3.88;;;2.30;99.90;;;;;;8312454;28;20488;-67
2021/03/21 09:36:35;;;;;;;;;;;2.20;99.90;;;;;;8303211;28;20395;-67
2021/03/21 09:40:39;;;;;;;6.18;4.10;;;2.10;99.90;;;;;;8303359;28;20292;-67
2021/03/21 09:44:45;;;;;;;7.53;4.65;;;2.00;99.90;;;;;;8292991;28;20022;-67
2021/03/21 09:49:05;;;;;;;7.20;4.15;;;2.00;99.90;;;;;;8322596;28;20014;-67
2021/03/21 09:53:30;;;;;;;5.50;3.20;;;2.00;99.90;;;;;;8288298;28;20017;-67
2021/03/21 09:57:50;;;;;;;8.25;4.97;;;2.10;99.90;;;;;;8319490;28;20021;-67
2021/03/21 10:02:11;;;;;;;507.92;473.08;;;2.10;99.90;;;;;;8327957;28;20091;-67
2021/03/21 10:06:22;;;;;;;7.00;3.78;;;2.30;99.90;;;;;;8305094;28;20068;-67
2021/03/21 10:10:29;;;;;;;5.35;3.25;;;2.30;99.90;;;;;;8324134;28;20041;-68
2021/03/21 10:14:29;;;;;;;5.35;3.33;;;2.40;99.90;;;;;;8318372;28;20503;-67
2021/03/21 10:18:58;;;;;;;7.45;3.95;;;2.50;99.90;;;;;;8298002;28;20046;-67
2021/03/21 10:23:01;;;;;;;6.95;4.15;;;2.70;99.90;;;;;;8314957;28;20095;-68
2021/03/21 10:27:18;;;;;;;9.27;4.95;;;2.90;99.90;;;;;;8313767;28;20021;-67
2021/03/21 10:31:22;;;;;;;6.18;3.75;;;2.70;99.90;;;;;;8317974;28;20028;-67
2021/03/21 10:35:28;;;;;;;3.40;2.08;;;2.70;99.90;;;;;;8311013;28;20022;-67
2021/03/21 10:39:29;;;;;;;7.45;4.97;;;2.60;99.90;;;;;;8329964;28;20089;-67
2021/03/21 10:43:29;;;;;;;5.95;4.20;;;2.50;99.90;;;;;;8321787;28;20040;-67
2021/03/21 10:47:30;;;;;;;7.03;4.28;;;2.50;99.90;;;;;;8309219;28;20646;-67
2021/03/21 10:52:13;;;;;;;6.72;3.58;;;2.50;99.90;;;;;;8328500;28;20162;-67
2021/03/21 10:56:26;;;;;;;4.85;2.55;;;2.50;99.90;;;;;;8327988;28;20096;-68
2021/03/21 11:00:31;;;;;;;7.53;3.88;;;2.50;99.90;;;;;;8328878;28;20096;-68
2021/03/21 11:04:33;;;;;;;6.47;3.42;;;2.70;99.90;;;;;;8328180;28;20091;-68
2021/03/21 11:08:34;;;;;;;7.70;4.75;;;3.20;99.90;;;;;;8337221;28;20109;-69
2021/03/21 11:12:42;;;;;;;8.40;4.35;;;3.40;99.90;;;;;;8337701;28;20146;-68
2021/03/21 11:16:55;;;;;;;4.03;2.53;;;3.50;99.90;;;;;;8328584;28;20013;-68
2021/03/21 11:21:07;;;;;;;5.97;3.80;;;3.40;99.90;;;;;;8340533;28;20013;-68
2021/03/21 11:25:13;;;;;;;6.70;4.25;;;3.20;99.90;;;;;;8330905;28;20010;-68
2021/03/21 11:29:31;;;;;;;7.05;3.67;;;3.50;99.90;;;;;;8326830;28;20036;-67
2021/03/21 11:33:34;;;;;;;7.95;4.53;;;3.40;99.90;;;;;;8316090;28;20392;-66
2021/03/21 11:37:44;;;;;;;3.42;2.33;;;3.30;99.90;;;;;;8301175;28;20018;-66
2021/03/21 11:41:44;;;;;;;4.53;2.67;;;2.90;99.90;;;;;;8298875;28;20029;-66
2021/03/21 11:45:46;;;;;;;7.97;4.03;;;2.70;99.90;;;;;;8296620;28;20040;-67
2021/03/21 11:49:47;;;;;;;6.35;3.75;;;2.90;99.90;;;;;;8297679;28;20036;-66
2021/03/21 11:53:49;;;;;;;8.35;4.65;;;3.00;99.90;;;;;;8284028;28;20022;-66
2021/03/21 11:57:57;;;;;;;5.95;3.17;;;3.00;99.90;;;;;;8294004;28;20056;-66
2021/03/21 12:01:59;;;;;;;6.28;3.70;;;3.00;99.90;;;;;;8290316;28;20128;-65
2021/03/21 12:06:04;;;;;;;6.13;3.63;;;3.00;99.90;;;;;;8297798;28;20394;-66
2021/03/21 12:10:06;;;;;;;4.85;2.92;;;3.10;99.90;;;;;;8305538;28;20036;-65
2021/03/21 12:14:24;;;;;;;3.55;2.47;;;3.40;99.90;;;;;;8306687;28;20061;-66
2021/03/21 12:18:30;;;;;;;4.85;3.30;;;3.30;99.90;;;;;;8302863;28;20570;-65
2021/03/21 12:22:36;;;;;;;5.00;3.42;;;3.40;99.90;;;;;;8301349;28;20033;-65
2021/03/21 12:26:40;;;;;;;7.90;3.63;;;3.40;99.90;;;;;;8302868;28;20037;-66
2021/03/21 12:30:58;;;;;;;8.10;4.82;;;3.60;99.90;;;;;;8281521;28;20045;-66
2021/03/21 12:34:59;;;;;;;6.60;3.78;;;3.60;99.90;;;;;;8308626;28;20079;-66
2021/03/21 12:39:28;;;;;;;10.25;5.20;;;3.90;99.90;;;;;;8288799;28;20649;-66
2021/03/21 12:43:32;;;;;;;4.22;2.88;;;3.90;99.90;;;;;;8302331;28;20450;-66
2021/03/21 12:47:36;;;;;;;8.10;4.00;;;4.10;99.90;;;;;;8297470;28;20057;-66
2021/03/21 12:51:36;;;;;;;8.02;5.03;;;4.80;99.90;;;;;;8278634;28;20411;-66
2021/03/21 12:55:37;;;;;;;8.65;5.20;;;5.00;99.90;;;;;;8298127;28;20022;-66
2021/03/21 12:59:40;;;;;;;9.50;5.72;;;4.80;99.90;;;;;;8305277;28;20022;-67
2021/03/21 13:03:41;;;;;;;7.68;4.80;;;4.70;99.90;;;;;;8307121;28;20038;-67
2021/03/21 13:07:41;;;;;;;6.95;4.18;;;4.70;99.90;;;;;;8304873;28;20526;-66
2021/03/21 13:11:42;;;;;;;7.10;3.63;;;4.60;99.90;;;;;;8282914;28;20519;-66
2021/03/21 13:15:43;;;;;;;4.10;2.35;;;4.50;99.90;;;;;;8301298;28;20388;-67
2021/03/21 13:19:44;;;;;;;5.18;3.97;;;4.40;99.90;;;;;;8287733;28;20041;-68
2021/03/21 13:23:44;;;;;;;7.35;4.90;;;4.50;99.90;;;;;;8284477;28;20512;-66
2021/03/21 13:27:45;;;;;;;6.43;3.38;;;4.90;99.90;;;;;;8314870;28;20036;-67
2021/03/21 13:31:46;;;;;;;6.30;3.53;;;5.40;99.90;;;;;;8327404;28;20021;-67
2021/03/21 13:35:48;;;;;;;11.00;5.25;;;5.40;99.90;;;;;;8332150;28;20104;-67
2021/03/21 13:39:50;;;;;;;5.35;3.40;;;5.30;99.90;;;;;;8285306;28;20017;-67
2021/03/21 13:43:51;;;;;;;44.45;37.95;;;5.40;99.90;;;;;;8296598;28;20029;-67
2021/03/21 13:47:52;;;;;;;5.80;3.45;;;5.30;99.90;;;;;;8306075;28;20036;-67
2021/03/21 13:51:52;;;;;;;6.80;3.88;;;5.00;99.90;;;;;;8319306;28;20050;-67
2021/03/21 13:55:54;;;;;;;7.90;4.68;;;4.90;99.90;;;;;;8318950;28;20028;-67
2021/03/21 13:59:54;;;;;;;8.05;4.53;;;5.10;99.90;;;;;;8318261;28;20684;-67
2021/03/21 14:03:55;;;;;;;7.88;4.20;;;5.50;99.90;;;;;;8322506;28;20080;-67
2021/03/21 14:07:56;;;;;;;6.85;3.65;;;5.20;99.90;;;;;;8302132;28;20040;-67
2021/03/21 14:11:57;;;;;;;8.95;4.88;;;4.90;99.90;;;;;;8305155;28;20070;-67
2021/03/21 14:15:58;;;;;;;7.53;4.65;;;4.80;99.90;;;;;;8322407;28;20041;-67
2021/03/21 14:19:58;;;;;;;5.60;3.80;;;4.60;99.90;;;;;;8304611;28;20030;-67
2021/03/21 14:24:00;;;;;;;9.45;4.55;;;4.50;99.90;;;;;;8296282;28;20030;-66
2021/03/21 14:28:01;;;;;;;4.43;2.45;;;4.40;99.90;;;;;;8310735;28;20116;-66
2021/03/21 14:32:02;;;;;;;6.70;3.95;;;4.40;99.90;;;;;;8315667;28;20422;-66
2021/03/21 14:36:04;;;;;;;352.63;319.25;;;4.40;99.90;;;;;;8314509;28;20514;-66
2021/03/21 14:40:07;;;;;;;1.92;1.52;;;4.30;99.90;;;;;;8310661;28;20021;-66
2021/03/21 14:44:08;;;;;;;8.00;4.82;;;4.00;99.90;;;;;;8305771;28;20133;-66
2021/03/21 14:48:09;;;;;;;6.90;3.90;;;3.80;99.90;;;;;;8291601;28;20492;-65
2021/03/21 14:52:10;;;;;;;7.95;5.05;;;3.80;99.90;;;;;;8325460;28;20061;-66
2021/03/21 14:56:11;;;;;;;4.30;2.95;;;3.80;99.90;;;;;;8317538;28;20033;-67
2021/03/21 15:00:18;;;;;;;5.55;2.75;;;3.90;99.90;;;;;;8322620;28;20108;-67
2021/03/21 15:04:19;;;;;;;6.13;3.13;;;3.80;99.90;;;;;;8325228;28;20033;-67
2021/03/21 15:08:21;;;;;;;8.55;4.53;;;3.70;99.90;;;;;;8328869;28;20044;-66
2021/03/21 15:12:22;;;;;;;441.60;406.33;;;3.70;99.90;;;;;;8319785;28;20100;-66
2021/03/21 15:16:23;;;;;;;7.40;4.03;;;3.80;99.90;;;;;;8300363;28;20087;-67
2021/03/21 15:20:26;;;;;;;9.68;5.03;;;3.70;99.90;;;;;;8302959;28;20061;-67
2021/03/21 15:24:27;;;;;;;8.82;5.55;;;3.80;99.90;;;;;;8290523;28;20112;-67
2021/03/21 15:28:36;;;;;;;9.52;5.70;;;3.90;99.90;;;;;;8290188;28;20034;-67
2021/03/21 15:32:37;;;;;;;6.57;4.10;;;3.90;99.90;;;;;;8315856;28;20037;-66
2021/03/21 15:36:38;;;;;;;9.73;4.65;;;3.80;99.90;;;;;;8295687;28;20026;-66
2021/03/21 15:40:42;;;;;;;14.27;4.75;;;3.70;99.90;;;;;;8296661;28;20042;-66
2021/03/21 15:44:43;;;;;;;8.63;5.00;;;3.70;99.90;;;;;;8316047;28;20151;-67
2021/03/21 15:48:45;;;;;;;10.52;5.35;;;3.70;99.90;;;;;;8292616;28;20447;-67
2021/03/21 15:52:45;;;;;;;8.73;5.43;;;3.80;99.90;;;;;;8290986;28;20056;-67
2021/03/21 15:56:46;;;;;;;10.77;5.20;;;3.70;99.90;;;;;;8312614;28;20117;-66
2021/03/21 16:00:47;;;;;;;8.63;5.13;;;3.70;99.90;;;;;;8305431;28;20038;-66
2021/03/21 16:04:47;;;;;;;8.40;5.72;;;3.50;99.90;;;;;;8284225;28;20171;-67
2021/03/21 16:08:48;;;;;;;8.93;5.93;;;3.50;99.90;;;;;;8267987;28;20077;-67
2021/03/21 16:12:48;;;;;;;11.52;6.18;;;3.50;99.90;;;;;;8268505;28;20037;-67
2021/03/21 16:16:49;;;;;;;10.50;5.57;;;3.50;99.90;;;;;;8284739;28;20034;-67
2021/03/21 16:20:50;;;;;;;11.82;6.30;;;3.30;99.90;;;;;;8288593;28;20267;-67
2021/03/21 16:24:53;;;;;;;15.02;7.57;;;3.40;99.90;;;;;;8282719;28;20048;-67
2021/03/21 16:28:53;;;;;;;30.80;16.27;;;3.40;99.90;;;;;;8317891;28;20018;-67
2021/03/21 16:32:55;;;;;;;16.90;8.30;;;3.40;99.90;;;;;;8316271;28;20037;-67
2021/03/21 16:36:56;;;;;;;10.65;6.15;;;3.30;99.90;;;;;;8317674;28;20033;-67
2021/03/21 16:41:01;;;;;;;10.80;6.13;;;3.20;99.90;;;;;;8321998;28;20104;-67
2021/03/21 16:45:04;;;;;;;9.10;6.45;;;3.00;99.90;;;;;;8321492;28;20025;-66
2021/03/21 16:49:05;;;;;;;10.30;6.50;;;2.80;99.90;;;;;;8320348;28;20024;-66
2021/03/21 16:53:05;;;;;;;13.18;8.05;;;2.70;99.90;;;;;;8299335;28;20563;-67
2021/03/21 16:57:08;;;;;;;17.40;8.20;;;2.60;99.90;;;;;;8318837;28;20641;-67
2021/03/21 17:01:09;;;;;;;12.05;7.80;;;2.70;99.90;;;;;;8304725;28;20023;-67
2021/03/21 17:05:10;;;;;;;10.63;5.38;;;2.70;99.90;;;;;;8323197;28;20140;-67
2021/03/21 17:09:11;;;;;;;17.65;8.68;;;2.70;99.90;;;;;;8317091;28;20032;-67
2021/03/21 17:13:13;;;;;;;10.70;5.40;;;2.50;99.90;;;;;;8282640;28;20035;-67
2021/03/21 17:17:14;;;;;;;7.90;5.07;;;2.40;99.90;;;;;;8316598;28;20035;-67
2021/03/21 17:21:15;;;;;;;8.98;5.13;;;2.50;99.90;;;;;;8314887;28;20025;-67
2021/03/21 17:25:17;;;;;;;7.90;3.55;;;2.50;99.90;;;;;;8301531;28;20657;-67
2021/03/21 17:29:17;;;;;;;10.93;5.57;;;2.50;99.90;;;;;;8297091;28;20033;-67
2021/03/21 17:33:22;;;;;;;8.25;5.13;;;2.40;99.90;;;;;;8285206;28;20087;-67
2021/03/21 17:37:23;;;;;;;7.22;4.43;;;2.30;99.90;;;;;;8286099;28;20041;-67
2021/03/21 17:41:23;;;;;;;9.23;5.50;;;2.30;99.90;;;;;;8271280;28;21438;-67
2021/03/21 17:45:29;;;;;;;8.63;4.70;;;2.30;99.90;;;;;;8277374;28;20057;-67
2021/03/21 17:49:30;;;;;;;11.05;5.10;;;2.30;99.90;;;;;;8265712;28;20117;-67
2021/03/21 17:53:36;;;;;;;7.43;4.35;;;2.30;99.90;;;;;;8283677;28;20462;-67
2021/03/21 17:57:37;;;;;;;7.22;4.75;;;2.20;99.90;;;;;;8305180;28;20025;-67
2021/03/21 18:01:37;;;;;;;7.10;3.88;;;2.10;99.90;;;;;;8289745;28;20033;-66
2021/03/21 18:05:38;;;;;;;8.13;4.53;;;2.10;99.90;;;;;;8285073;28;20041;-67
2021/03/21 18:09:39;;;;;;;7.47;3.67;;;2.10;99.90;;;;;;8305321;28;20045;-68
2021/03/21 18:13:41;;;;;;;4.88;2.70;;;2.10;99.90;;;;;;8299050;28;20033;-65
2021/03/21 18:17:42;;;;;;;8.45;4.50;;;2.20;99.90;;;;;;8322900;28;20491;-68
2021/03/21 18:21:43;;;;;;;10.60;4.72;;;2.10;99.90;;;;;;8302400;28;20618;-67
2021/03/21 18:25:45;;;;;;;9.18;4.47;;;2.10;99.90;;;;;;8317016;28;20503;-64
2021/03/21 18:29:45;;;;;;;8.25;4.82;;;2.20;99.90;;;;;;8324080;28;20029;-67
2021/03/21 18:33:46;;;;;;;4.05;1.95;;;2.20;99.90;;;;;;8326712;28;20613;-66
2021/03/21 18:37:48;;;;;;;6.57;4.07;;;2.20;99.90;;;;;;8329385;28;20400;-67
2021/03/21 18:41:49;;;;;;;7.32;4.38;;;2.20;99.90;;;;;;8334660;28;20029;-67
2021/03/21 18:45:50;;;;;;;12.02;4.38;;;2.20;99.90;;;;;;8329177;28;20029;-66
2021/03/21 18:49:51;;;;;;;7.72;4.25;;;2.10;99.90;;;;;;8325482;28;20041;-66
2021/03/21 18:53:52;;;;;;;6.78;4.47;;;2.20;99.90;;;;;;8304313;28;20067;-67
2021/03/21 18:57:52;;;;;;;9.55;4.68;;;2.30;99.90;;;;;;8320286;28;20036;-66
2021/03/21 19:01:53;;;;;;;6.88;3.92;;;2.30;99.90;;;;;;8313845;28;20458;-67
2021/03/21 19:05:54;;;;;;;10.90;3.65;;;2.30;99.90;;;;;;8301133;28;20034;-67
2021/03/21 19:09:54;;;;;;;6.80;4.55;;;2.20;99.90;;;;;;8285569;28;20073;-67
2021/03/21 19:13:55;;;;;;;9.52;5.30;;;2.20;99.90;;;;;;8291968;28;20500;-66
2021/03/21 19:17:56;;;;;;;4.13;3.03;;;2.20;99.90;;;;;;8287544;28;20059;-67
2021/03/21 19:21:57;;;;;;;8.68;5.63;;;2.20;99.90;;;;;;8321607;28;20450;-66
2021/03/21 19:25:58;;;;;;;8.38;4.47;;;2.30;99.90;;;;;;8309365;28;20029;-66
2021/03/21 19:29:59;;;;;;;8.80;5.55;;;2.30;99.90;;;;;;8323600;28;20499;-66
2021/03/21 19:34:00;;;;;;;9.70;5.35;;;2.20;99.90;;;;;;8299861;28;20029;-67
2021/03/21 19:38:02;;;;;;;8.02;5.00;;;2.30;99.90;;;;;;8315162;28;20394;-67
2021/03/21 19:42:03;;;;;;;8.65;5.35;;;2.30;99.90;;;;;;8299527;28;20041;-66
2021/03/21 19:46:06;;;;;;;9.68;5.15;;;2.30;99.90;;;;;;8318134;28;20083;-67
2021/03/21 19:50:09;;;;;;;10.93;5.63;;;2.20;99.90;;;;;;8300039;28;20040;-67
2021/03/21 19:54:10;;;;;;;9.35;5.35;;;2.30;99.90;;;;;;8304066;28;20025;-67
2021/03/21 19:58:12;;;;;;;9.45;5.88;;;2.40;99.90;;;;;;8294622;28;20040;-66
2021/03/21 20:02:13;;;;;;;808.55;736.10;;;2.40;99.90;;;;;;8309660;28;20112;-67
2021/03/21 20:06:13;;;;;;;10.77;5.45;;;2.50;99.90;;;;;;8306671;28;20032;-67
2021/03/21 20:10:19;;;;;;;12.60;5.65;;;2.40;99.90;;;;;;8314308;28;20021;-66
2021/03/21 20:14:20;;;;;;;8.02;5.45;;;2.30;99.90;;;;;;8317631;28;20041;-67
2021/03/21 20:18:21;;;;;;;8.52;5.03;;;2.30;99.90;;;;;;8313933;28;20025;-66
2021/03/21 20:22:22;;;;;;;2.50;1.33;;;2.30;99.90;;;;;;8300632;28;20447;-66
2021/03/21 20:26:28;;;;;;;11.38;6.50;;;2.40;99.90;;;;;;8316788;28;20104;-67
2021/03/21 20:30:29;;;;;;;10.63;5.88;;;2.40;99.90;;;;;;8289311;28;20030;-66
2021/03/21 20:34:32;;;;;;;7.07;3.55;;;2.40;99.90;;;;;;8303954;28;20032;-66
2021/03/21 20:38:33;;;;;;;9.27;5.63;;;2.40;99.90;;;;;;8298685;28;20061;-67
2021/03/21 20:42:34;;;;;;;10.25;6.22;;;2.40;99.90;;;;;;8318593;28;20029;-67
2021/03/21 20:46:34;;;;;;;5.00;3.28;;;2.50;99.90;;;;;;8302450;28;20116;-66
2021/03/21 20:50:35;;;;;;;10.63;6.50;;;2.50;99.90;;;;;;8297575;28;20072;-66
2021/03/21 20:54:35;;;;;;;14.60;7.80;;;2.50;99.90;;;;;;8320628;28;20055;-66
2021/03/21 20:58:36;;;;;;;12.55;5.85;;;2.50;99.90;;;;;;8320473;28;20025;-66
2021/03/21 21:02:37;;;;;;;18.20;9.60;;;2.50;99.90;;;;;;8320762;28;20046;-66
2021/03/21 21:06:38;;;;;;;15.40;7.88;;;2.50;99.90;;;;;;8304165;28;20026;-66
2021/03/21 21:10:38;;;;;;;10.25;6.07;;;2.60;99.90;;;;;;8320392;28;20044;-66
2021/03/21 21:14:39;;;;;;;10.68;5.68;;;2.60;99.90;;;;;;8320512;28;20064;-67
2021/03/21 21:18:40;;;;;;;14.27;7.78;;;2.50;99.90;;;;;;8308086;28;20120;-67
2021/03/21 21:22:41;;;;;;;12.60;6.20;;;2.60;99.90;;;;;;8327117;28;20025;-66
2021/03/21 21:26:43;;;;;;;10.77;6.75;;;2.50;99.90;;;;;;8335495;28;20060;-67
2021/03/21 21:30:44;;;;;;;12.45;7.07;;;2.40;99.90;;;;;;8324011;28;20394;-66
2021/03/21 21:34:44;;;;;;;13.63;6.70;;;2.50;99.90;;;;;;8331186;28;20032;-67
2021/03/21 21:38:45;;;;;;;12.30;6.85;;;2.40;99.90;;;;;;8325135;28;20032;-66
2021/03/21 21:42:46;;;;;;;12.93;7.22;;;2.40;99.90;;;;;;8324950;28;20022;-66
2021/03/21 21:46:46;;;;;;;13.25;7.47;;;2.50;99.90;;;;;;8323783;28;20022;-66
2021/03/21 21:50:48;;;;;;;13.20;9.18;;;2.60;99.90;;;;;;8325157;28;20033;-67
2021/03/21 21:54:49;;;;;;;12.27;6.15;;;2.50;99.90;;;;;;8323712;28;20036;-66
2021/03/21 21:58:50;;;;;;;9.38;6.10;;;2.50;99.90;;;;;;8323464;28;20033;-66
2021/03/21 22:02:51;;;;;;;9.05;5.35;;;2.50;99.90;;;;;;8330112;28;20559;-66
2021/03/21 22:06:51;;;;;;;11.65;6.40;;;2.70;99.90;;;;;;8332064;28;20399;-67
2021/03/21 22:10:52;;;;;;;12.45;7.38;;;2.60;99.90;;;;;;8332212;28;20025;-66
2021/03/21 22:14:53;;;;;;;13.95;7.22;;;2.60;99.90;;;;;;8313876;28;20052;-66
2021/03/21 22:18:53;;;;;;;13.55;7.75;;;2.40;99.90;;;;;;8332211;28;20360;-66